Aviation Digital Data Service (ADDS)

Output produced by METARs form (1737 UTC 24 June 2019)
found at http://www.aviationweather.gov/metar/data/
 
Forecast for: RPLC (ANGELES/PAMPANGA, PH)
Text: TAF RPLC 241700Z 2418/2524 17006KT 9999 SCT020 BKN300 TX34/2506Z TN26/2422Z
Forecast period: 1800 UTC 24 June 2019 to 0000 UTC 26 June 2019
Forecast type: FROM: standard forecast or significant change
Winds: from the S (170 degrees) at 7 MPH (6 knots; 3.1 m/s)
Visibility: 6 or more miles 10+ km)
Ceiling: 30000 feet AGL
Clouds: scattered clouds at 2000 feet AGL
broken clouds at 30000 feet AGL
Weather: no significant weather forecast for this period
Text: TEMPO 2418/2424 02008KT 6000 TS -SHRA FEW015CB SCT020 OVC100
Forecast period: 1800 UTC 24 June 2019 to 0000 UTC 25 June 2019
Forecast type: TEMPORARY: The following changes expected for less than half the time period
Winds: from the NNE (20 degrees) at 9 MPH (8 knots; 4.1 m/s)
Visibility: 4 miles (6 km)
Ceiling: 10000 feet AGL
Clouds: few clouds at 1500 feet AGL
scattered clouds at 2000 feet AGL
overcast cloud deck at 10000 feet AGL
Weather: TS -SHRA  (thunderstorm, light rain showers)